createdAt,value
2022-12-05T00:01:37.109Z,38.15
2022-12-05T00:04:22.607Z,37.50
2022-12-05T00:07:09.532Z,36.38
2022-12-05T00:09:57.898Z,36.15
2022-12-05T00:12:43.158Z,36.88
2022-12-05T00:15:28.555Z,35.35
2022-12-05T00:18:14.042Z,36.60
2022-12-05T00:21:02.392Z,34.58
2022-12-05T00:23:48.282Z,36.10
2022-12-05T00:26:37.066Z,35.63
2022-12-05T00:29:22.425Z,34.60
2022-12-05T00:32:08.040Z,33.80
2022-12-05T00:34:53.359Z,34.53
2022-12-05T00:37:41.367Z,34.92
2022-12-05T00:40:26.694Z,33.90
2022-12-05T00:43:13.599Z,34.88
2022-12-05T00:46:09.337Z,33.50
2022-12-05T00:48:56.679Z,35.60
2022-12-05T00:51:47.389Z,32.65
2022-12-05T00:54:33.039Z,33.20
2022-12-05T00:57:24.238Z,36.28
2022-12-05T01:00:09.825Z,34.28
2022-12-05T01:02:56.198Z,34.67
2022-12-05T01:05:41.502Z,34.97
2022-12-05T01:08:27.646Z,33.72
2022-12-05T01:11:19.803Z,34.40
2022-12-05T01:14:05.632Z,34.72
2022-12-05T01:16:53.271Z,34.67
2022-12-05T01:19:44.329Z,32.25
2022-12-05T01:22:32.590Z,35.17
2022-12-05T01:25:18.013Z,33.53
2022-12-05T01:28:03.522Z,34.55
2022-12-05T01:30:50.546Z,35.58
2022-12-05T01:33:36.004Z,33.10
2022-12-05T01:36:22.904Z,35.63
2022-12-05T01:39:09.571Z,35.22
2022-12-05T01:41:55.246Z,35.30
2022-12-05T01:44:43.390Z,35.47
2022-12-05T01:47:30.766Z,33.97
2022-12-05T01:50:16.811Z,33.25
2022-12-05T01:53:03.655Z,32.58
2022-12-05T01:55:50.744Z,32.80
2022-12-05T01:58:38.638Z,34.38
2022-12-05T02:01:24.015Z,33.95
2022-12-05T02:04:10.504Z,35.00
2022-12-05T02:06:56.158Z,35.15
2022-12-05T02:09:41.774Z,34.55
2022-12-05T02:12:27.573Z,35.22
2022-12-05T02:15:21.926Z,34.25
2022-12-05T02:18:39.093Z,35.53
2022-12-05T02:21:38.725Z,33.97
2022-12-05T02:24:48.704Z,34.60
2022-12-05T02:28:01.358Z,36.17
2022-12-05T02:31:22.152Z,34.70
2022-12-05T02:34:24.747Z,33.97
2022-12-05T02:37:21.807Z,35.80
2022-12-05T02:40:20.992Z,35.58
2022-12-05T02:43:14.529Z,36.08
2022-12-05T02:46:05.074Z,34.78
2022-12-05T02:48:55.846Z,37.45
2022-12-05T02:51:56.066Z,38.92
2022-12-05T02:54:44.687Z,35.38
2022-12-05T02:57:31.801Z,37.03
2022-12-05T03:00:23.495Z,36.95
2022-12-05T03:03:16.696Z,36.17
2022-12-05T03:06:11.418Z,37.55
2022-12-05T03:09:04.142Z,36.80
2022-12-05T03:11:56.037Z,35.58
2022-12-05T03:14:52.625Z,37.03
2022-12-05T03:17:50.534Z,37.50
2022-12-05T03:20:47.902Z,37.30
2022-12-05T03:23:46.174Z,35.05
2022-12-05T03:26:41.631Z,36.38
2022-12-05T03:29:36.526Z,36.08
2022-12-05T03:32:40.871Z,35.85
2022-12-05T03:35:35.740Z,35.60
2022-12-05T03:38:44.843Z,36.40
2022-12-05T03:41:42.977Z,35.83
2022-12-05T03:44:43.193Z,35.53
2022-12-05T03:47:51.687Z,35.80
2022-12-05T03:50:41.479Z,34.53
2022-12-05T03:53:32.586Z,35.67
2022-12-05T03:56:39.636Z,32.70
2022-12-05T03:59:38.321Z,34.63
2022-12-05T04:02:45.230Z,33.42
2022-12-05T04:05:39.219Z,34.13
2022-12-05T04:08:31.954Z,33.55
2022-12-05T04:11:22.314Z,34.35
2022-12-05T04:14:13.885Z,33.50
2022-12-05T04:17:04.701Z,33.83
2022-12-05T04:20:13.779Z,34.38
2022-12-05T04:22:59.572Z,32.83
2022-12-05T04:26:13.439Z,31.50
2022-12-05T04:29:14.630Z,31.75
2022-12-05T04:32:06.602Z,30.48
2022-12-05T04:34:59.010Z,31.67
2022-12-05T04:37:47.509Z,31.08
2022-12-05T04:40:48.710Z,32.15
2022-12-05T04:43:40.333Z,31.67
2022-12-05T04:46:25.767Z,30.17
2022-12-05T04:49:19.317Z,29.65
2022-12-05T04:52:09.405Z,29.23
2022-12-05T04:55:08.914Z,29.55
2022-12-05T04:58:18.785Z,29.55
2022-12-05T05:01:13.046Z,29.08
2022-12-05T05:04:05.818Z,29.05
2022-12-05T05:06:51.402Z,29.48
2022-12-05T05:09:37.713Z,29.30
2022-12-05T05:12:23.258Z,29.58
2022-12-05T05:15:12.561Z,28.52
2022-12-05T05:17:58.022Z,27.58
2022-12-05T05:20:43.546Z,28.80
2022-12-05T05:23:29.259Z,29.63
2022-12-05T05:26:15.034Z,29.42
2022-12-05T05:29:00.234Z,29.23
2022-12-05T05:31:46.284Z,29.05
2022-12-05T05:34:31.702Z,27.48
2022-12-05T05:37:48.595Z,29.30
2022-12-05T05:40:37.162Z,29.08
2022-12-05T05:43:25.757Z,28.88
2022-12-05T05:46:12.794Z,29.42
2022-12-05T05:48:58.299Z,31.70
2022-12-05T05:51:43.741Z,29.48
2022-12-05T05:54:32.120Z,29.65
2022-12-05T05:57:20.467Z,29.85
2022-12-05T06:00:09.096Z,29.95
2022-12-05T06:02:54.636Z,30.80
2022-12-05T06:05:40.102Z,31.70
2022-12-05T06:08:25.908Z,31.00
2022-12-05T06:11:17.829Z,30.88
2022-12-05T06:14:12.150Z,30.10
2022-12-05T06:16:57.492Z,31.02
2022-12-05T06:19:45.478Z,29.02
2022-12-05T06:22:30.730Z,30.23
2022-12-05T06:25:16.370Z,30.95
2022-12-05T06:28:01.947Z,31.08
2022-12-05T06:30:47.755Z,30.77
2022-12-05T06:33:35.909Z,30.52
2022-12-05T06:36:22.473Z,30.25
2022-12-05T06:39:08.723Z,29.40
2022-12-05T06:41:54.163Z,29.80
2022-12-05T06:44:41.817Z,30.02
2022-12-05T06:47:27.029Z,31.38
2022-12-05T06:50:12.746Z,31.23
2022-12-05T06:53:01.089Z,29.02
2022-12-05T06:56:12.108Z,29.75
2022-12-05T06:58:57.446Z,30.33
2022-12-05T07:01:43.683Z,30.48
2022-12-05T07:04:29.532Z,29.17
2022-12-05T07:07:14.832Z,30.35
2022-12-05T07:10:00.846Z,29.13
2022-12-05T07:12:46.206Z,29.02
2022-12-05T07:15:31.803Z,30.30
2022-12-05T07:18:18.071Z,28.50
2022-12-05T07:21:14.521Z,28.30
2022-12-05T07:24:00.481Z,29.35
2022-12-05T07:26:45.945Z,28.50
2022-12-05T07:29:31.690Z,29.05
2022-12-05T07:32:19.080Z,27.52
2022-12-05T07:35:04.771Z,28.20
2022-12-05T07:37:50.334Z,28.00
2022-12-05T07:40:37.638Z,26.77
2022-12-05T07:43:23.858Z,26.30
2022-12-05T07:46:11.829Z,26.42
2022-12-05T07:48:59.372Z,26.63
2022-12-05T07:51:45.007Z,26.23
2022-12-05T07:54:30.479Z,25.80
2022-12-05T07:57:15.766Z,23.83
2022-12-05T08:00:01.252Z,22.08
2022-12-05T08:02:49.374Z,23.40
2022-12-05T08:05:34.555Z,22.25
2022-12-05T08:08:20.212Z,20.73
2022-12-05T08:11:17.350Z,21.30
2022-12-05T08:14:04.379Z,21.67
2022-12-05T08:16:49.924Z,21.05
2022-12-05T08:19:39.587Z,20.85
2022-12-05T08:22:25.151Z,20.27
2022-12-05T08:25:10.972Z,20.08
2022-12-05T08:27:56.423Z,19.33
2022-12-05T08:30:42.031Z,19.90
2022-12-05T08:33:27.487Z,19.30
2022-12-05T08:36:18.342Z,19.70
2022-12-05T08:39:06.581Z,19.67
2022-12-05T08:41:51.914Z,19.70
2022-12-05T08:44:37.324Z,18.52
2022-12-05T08:47:32.521Z,18.52
2022-12-05T08:55:48.745Z,18.08
2022-12-05T08:58:35.574Z,17.50
2022-12-05T09:01:21.763Z,18.02
2022-12-05T09:04:07.833Z,17.98
2022-12-05T09:06:53.454Z,17.02
2022-12-05T09:09:38.859Z,17.58
2022-12-05T09:12:24.374Z,15.52
2022-12-05T09:15:11.985Z,16.33
2022-12-05T09:17:57.181Z,16.30
2022-12-05T09:20:42.807Z,16.58
2022-12-05T09:23:28.322Z,15.48
2022-12-05T09:26:15.959Z,14.75
2022-12-05T09:29:02.656Z,15.35
2022-12-05T09:31:51.599Z,15.05
2022-12-05T09:34:40.290Z,14.98
2022-12-05T09:37:40.655Z,14.68
2022-12-05T09:40:25.890Z,15.07
2022-12-05T09:43:35.079Z,13.60
2022-12-05T09:46:35.646Z,13.77
2022-12-05T09:49:23.337Z,13.30
2022-12-05T09:52:17.932Z,13.07
2022-12-05T09:55:14.215Z,12.50
2022-12-05T09:58:02.537Z,11.77
2022-12-05T10:00:54.167Z,11.70
2022-12-05T10:03:45.912Z,12.32
2022-12-05T10:07:14.186Z,11.63
2022-12-05T10:10:27.676Z,11.68
2022-12-05T10:13:34.703Z,10.85
2022-12-05T10:16:36.080Z,11.40
2022-12-05T10:19:34.263Z,11.10
2022-12-05T10:22:32.563Z,10.98
2022-12-05T10:25:21.806Z,11.02
2022-12-05T10:28:18.346Z,10.55
2022-12-05T10:31:09.839Z,10.82
2022-12-05T10:34:10.318Z,10.80
2022-12-05T10:37:02.444Z,10.15
2022-12-05T10:39:49.660Z,10.23
2022-12-05T10:42:42.694Z,10.27
2022-12-05T10:45:28.026Z,10.95
2022-12-05T10:48:15.898Z,10.35
2022-12-05T10:51:01.619Z,11.07
2022-12-05T10:53:49.800Z,11.63
2022-12-05T10:56:43.013Z,11.02
2022-12-05T10:59:47.863Z,11.65
2022-12-05T11:02:36.898Z,11.07
2022-12-05T11:05:31.411Z,9.73
2022-12-05T11:09:03.248Z,10.30
2022-12-05T11:11:40.577Z,10.32
2022-12-05T11:14:27.409Z,9.48
2022-12-05T11:17:25.736Z,9.30
2022-12-05T11:20:20.271Z,10.02
2022-12-05T11:23:23.244Z,9.20
2022-12-05T11:26:36.796Z,9.30
2022-12-05T11:29:34.951Z,9.20
2022-12-05T11:32:24.130Z,8.85
2022-12-05T11:35:26.080Z,8.48
2022-12-05T11:38:13.049Z,8.48
2022-12-05T11:41:35.855Z,9.00
2022-12-05T11:44:33.214Z,7.88
2022-12-05T11:47:30.882Z,8.48
2022-12-05T11:50:44.401Z,7.97
2022-12-05T11:53:55.995Z,8.38
2022-12-05T11:57:13.917Z,8.32
2022-12-05T12:00:10.674Z,8.20
2022-12-05T12:03:31.367Z,7.97
2022-12-05T12:06:24.432Z,8.20
2022-12-05T12:09:31.291Z,8.38
2022-12-05T12:12:23.753Z,7.80
2022-12-05T12:15:54.560Z,8.05
2022-12-05T12:19:17.874Z,7.20
2022-12-05T12:22:18.539Z,8.35
2022-12-05T12:25:31.746Z,8.50
2022-12-05T12:29:03.496Z,7.75
2022-12-05T12:31:51.895Z,8.13
2022-12-05T12:35:03.113Z,7.65
2022-12-05T12:38:03.962Z,8.45
2022-12-05T12:40:55.573Z,7.40
2022-12-05T12:43:59.834Z,9.50
2022-12-05T12:46:52.663Z,8.80
2022-12-05T12:50:31.612Z,8.38
2022-12-05T12:53:56.011Z,9.05
2022-12-05T12:56:48.039Z,8.70
2022-12-05T12:59:49.126Z,8.35
2022-12-05T13:02:58.662Z,8.50
2022-12-05T13:06:18.957Z,8.98
2022-12-05T13:09:28.652Z,8.48
2022-12-05T13:12:17.227Z,8.15
2022-12-05T13:15:08.091Z,8.52
2022-12-05T13:17:54.917Z,8.38
2022-12-05T13:20:40.807Z,8.38
2022-12-05T13:23:45.241Z,8.65
2022-12-05T13:26:32.851Z,8.65
2022-12-05T13:29:37.449Z,8.23
2022-12-05T13:32:32.805Z,8.30
2022-12-05T13:35:47.684Z,8.98
2022-12-05T13:38:57.314Z,9.13
2022-12-05T13:42:07.405Z,8.98
2022-12-05T13:45:04.969Z,9.07
2022-12-05T13:47:59.600Z,9.00
2022-12-05T13:50:58.839Z,9.45
2022-12-05T13:53:48.591Z,10.10
2022-12-05T13:56:53.185Z,10.30
2022-12-05T14:00:10.360Z,10.55
2022-12-05T14:03:04.857Z,10.70
2022-12-05T14:05:54.725Z,9.82
2022-12-05T14:08:39.868Z,10.48
2022-12-05T14:11:25.792Z,10.50
2022-12-05T14:14:13.377Z,9.77
2022-12-05T14:17:03.083Z,9.27
2022-12-05T14:20:17.360Z,9.75
2022-12-05T14:23:39.575Z,10.48
2022-12-05T14:26:51.018Z,9.90
2022-12-05T14:30:12.654Z,9.50
2022-12-05T14:33:01.727Z,9.27
2022-12-05T14:35:51.502Z,9.13
2022-12-05T14:38:40.421Z,8.82
2022-12-05T14:41:34.773Z,9.10
2022-12-05T14:44:24.510Z,9.55
2022-12-05T14:47:20.722Z,8.75
2022-12-05T14:50:45.652Z,9.18
2022-12-05T14:53:43.078Z,8.75
2022-12-05T14:56:28.512Z,7.78
2022-12-05T14:59:27.697Z,8.57
2022-12-05T15:02:27.701Z,8.70
2022-12-05T15:05:33.077Z,7.35
2022-12-05T15:08:20.491Z,7.22
2022-12-05T15:11:05.838Z,7.13
2022-12-05T15:13:53.144Z,7.32
2022-12-05T15:16:47.982Z,8.30
2022-12-05T15:19:51.021Z,8.23
2022-12-05T15:22:37.972Z,7.70
2022-12-05T15:25:31.290Z,8.38
2022-12-05T15:28:19.998Z,8.32
2022-12-05T15:31:08.390Z,8.10
2022-12-05T15:33:58.489Z,8.15
2022-12-05T15:36:50.715Z,7.93
2022-12-05T15:39:59.293Z,8.55
2022-12-05T15:42:46.038Z,8.60
2022-12-05T15:45:31.805Z,7.28
2022-12-05T15:48:22.713Z,7.60
2022-12-05T15:51:08.790Z,8.27
2022-12-05T15:54:04.069Z,8.07
2022-12-05T15:57:09.666Z,7.40
2022-12-05T16:00:03.276Z,7.57
2022-12-05T16:03:18.239Z,7.72
2022-12-05T16:06:16.738Z,6.68
2022-12-05T16:09:11.561Z,7.22
2022-12-05T16:12:06.293Z,6.53
2022-12-05T16:15:00.256Z,6.60
2022-12-05T16:17:49.036Z,7.03
2022-12-05T16:20:36.610Z,6.80
2022-12-05T16:23:30.004Z,7.07
2022-12-05T16:26:24.493Z,8.13
2022-12-05T16:29:28.096Z,7.80
2022-12-05T16:32:24.653Z,8.43
2022-12-05T16:35:43.191Z,9.23
2022-12-05T16:38:32.059Z,8.50
2022-12-05T16:41:18.941Z,8.82
2022-12-05T16:44:13.052Z,9.10
2022-12-05T16:47:01.792Z,10.30
2022-12-05T16:49:47.430Z,9.73
2022-12-05T16:52:32.770Z,8.73
2022-12-05T16:55:18.187Z,9.38
2022-12-05T16:58:11.646Z,9.20
2022-12-05T17:01:06.534Z,8.68
2022-12-05T17:03:56.280Z,8.93
2022-12-05T17:06:41.406Z,9.45
2022-12-05T17:09:26.946Z,9.57
2022-12-05T17:12:22.565Z,8.45
2022-12-05T17:15:20.248Z,8.60
2022-12-05T17:18:16.948Z,8.95
2022-12-05T17:21:03.104Z,8.73
2022-12-05T17:23:48.671Z,8.00
2022-12-05T17:26:34.025Z,7.65
2022-12-05T17:29:19.564Z,7.47
2022-12-05T17:32:05.298Z,7.80
2022-12-05T17:34:50.982Z,7.93
2022-12-05T17:37:36.190Z,6.90
2022-12-05T17:40:21.642Z,6.90
2022-12-05T17:43:09.876Z,6.72
2022-12-05T17:45:55.201Z,6.97
2022-12-05T17:48:45.591Z,7.28
2022-12-05T17:51:33.571Z,7.32
2022-12-05T17:54:22.167Z,6.63
2022-12-05T17:57:07.445Z,6.53
2022-12-05T17:59:53.217Z,6.93
2022-12-05T18:02:42.290Z,7.03
2022-12-05T18:05:28.366Z,6.53
2022-12-05T18:08:16.617Z,6.57
2022-12-05T18:11:02.094Z,6.53
2022-12-05T18:13:47.850Z,6.75
2022-12-05T18:16:33.141Z,6.40
2022-12-05T18:19:18.683Z,6.43
2022-12-05T18:22:04.434Z,5.47
2022-12-05T18:24:50.050Z,5.50
2022-12-05T18:27:36.404Z,5.70
2022-12-05T18:30:23.949Z,5.88
2022-12-05T18:33:09.361Z,5.75
2022-12-05T18:35:57.957Z,5.95
2022-12-05T18:38:49.192Z,5.55
2022-12-05T18:41:37.246Z,6.05
2022-12-05T18:44:25.601Z,6.43
2022-12-05T18:47:11.174Z,6.13
2022-12-05T18:49:57.378Z,4.88
2022-12-05T18:52:42.946Z,4.43
2022-12-05T18:55:51.800Z,5.32
2022-12-05T18:58:34.235Z,5.30
2022-12-05T19:01:21.007Z,5.18
2022-12-05T19:04:13.206Z,6.63
2022-12-05T19:07:01.030Z,6.65
2022-12-05T19:09:46.677Z,6.72
2022-12-05T19:12:31.977Z,7.03
2022-12-05T19:15:17.461Z,6.93
2022-12-05T19:18:03.288Z,7.40
2022-12-05T19:20:52.309Z,7.53
2022-12-05T19:23:37.789Z,8.25
2022-12-05T19:26:26.523Z,8.07
2022-12-05T19:29:13.286Z,8.95
2022-12-05T19:32:01.448Z,7.53
2022-12-05T19:34:48.374Z,6.85
2022-12-05T19:37:34.207Z,6.82
2022-12-05T19:40:19.644Z,6.53
2022-12-05T19:43:05.288Z,6.72
2022-12-05T19:45:52.434Z,6.18
2022-12-05T19:48:38.289Z,6.82
2022-12-05T19:51:25.229Z,6.43
2022-12-05T19:54:13.741Z,7.45
2022-12-05T19:57:00.683Z,7.43
2022-12-05T19:59:46.346Z,7.28
2022-12-05T20:02:31.908Z,7.07
2022-12-05T20:05:17.475Z,7.05
2022-12-05T20:08:02.837Z,7.82
2022-12-05T20:10:49.839Z,7.72
2022-12-05T20:13:52.313Z,7.65
2022-12-05T20:16:37.775Z,6.72
2022-12-05T20:19:23.754Z,7.32
2022-12-05T20:22:13.177Z,7.55
2022-12-05T20:24:58.782Z,7.85
2022-12-05T20:27:44.275Z,7.57
2022-12-05T20:30:33.209Z,7.68
2022-12-05T20:33:18.610Z,6.95
2022-12-05T20:36:28.262Z,7.90
2022-12-05T20:39:15.994Z,7.80
2022-12-05T20:42:01.571Z,7.68
2022-12-05T20:44:47.065Z,7.82
2022-12-05T20:47:32.674Z,7.13
2022-12-05T20:50:18.793Z,7.43
2022-12-05T20:53:03.966Z,7.95
2022-12-05T20:55:49.517Z,7.78
2022-12-05T20:58:36.640Z,7.75
2022-12-05T21:01:23.843Z,8.18
2022-12-05T21:04:11.345Z,8.30
2022-12-05T21:06:57.253Z,7.43
2022-12-05T21:09:42.828Z,7.22
2022-12-05T21:12:28.174Z,7.60
2022-12-05T21:15:19.755Z,7.22
2022-12-05T21:18:08.185Z,7.80
2022-12-05T21:20:58.485Z,8.40
2022-12-05T21:23:51.933Z,7.30
2022-12-05T21:26:38.059Z,7.50
2022-12-05T21:29:23.414Z,6.70
2022-12-05T21:32:09.911Z,8.10
2022-12-05T21:34:55.127Z,8.18
2022-12-05T21:37:40.873Z,8.73
2022-12-05T21:40:27.165Z,7.75
2022-12-05T21:43:30.956Z,8.18
2022-12-05T21:46:16.679Z,8.13
2022-12-05T21:49:01.932Z,7.53
2022-12-05T21:51:48.312Z,7.75
2022-12-05T21:54:34.413Z,7.00
2022-12-05T21:57:20.394Z,7.38
2022-12-05T22:00:08.113Z,7.78
2022-12-05T22:02:54.801Z,8.50
2022-12-05T22:05:40.885Z,8.55
2022-12-05T22:08:26.303Z,8.70
2022-12-05T22:11:18.005Z,9.75
2022-12-05T22:14:03.604Z,8.93
2022-12-05T22:16:52.068Z,9.55
2022-12-05T22:19:37.441Z,9.68
2022-12-05T22:22:24.174Z,9.93
2022-12-05T22:25:09.762Z,10.35
2022-12-05T22:27:58.126Z,9.38
2022-12-05T22:30:47.252Z,8.98
2022-12-05T22:33:35.554Z,8.70
2022-12-05T22:36:21.342Z,9.88
2022-12-05T22:39:06.846Z,8.95
2022-12-05T22:41:52.051Z,7.97
2022-12-05T22:44:37.868Z,9.30
2022-12-05T22:47:23.231Z,8.55
2022-12-05T22:50:08.972Z,8.52
2022-12-05T22:52:54.727Z,9.90
2022-12-05T22:55:40.185Z,9.05
2022-12-05T22:58:25.788Z,8.55
2022-12-05T23:01:17.909Z,9.77
2022-12-05T23:04:09.899Z,10.05
2022-12-05T23:06:55.311Z,8.82
2022-12-05T23:09:40.789Z,9.02
2022-12-05T23:12:26.561Z,9.07
2022-12-05T23:15:13.403Z,9.40
2022-12-05T23:17:58.991Z,10.27
2022-12-05T23:20:44.637Z,9.45
2022-12-05T23:23:30.858Z,9.55
2022-12-05T23:26:16.879Z,10.18
2022-12-05T23:29:05.265Z,10.02
2022-12-05T23:31:50.749Z,10.40
2022-12-05T23:34:36.216Z,10.23
2022-12-05T23:37:21.550Z,10.02
2022-12-05T23:40:07.736Z,10.15
2022-12-05T23:42:55.273Z,10.27
2022-12-05T23:45:43.246Z,9.60
2022-12-05T23:48:29.342Z,9.60
2022-12-05T23:51:27.040Z,10.90
2022-12-05T23:54:12.994Z,9.93
2022-12-05T23:57:00.529Z,9.65
2022-12-05T23:59:49.328Z,9.82
